Time;durP1;ratioP1;P1;durP2;ratioP2;P2;SDS_P1;SDS_P2;PMS_P1;PMS_P2;Temp;Humidity;BMP_temperature;BMP_pressure;BME280_temperature;BME280_humidity;BME280_pressure;Samples;Min_cycle;Max_cycle;Signal;HPM_P1;HPM_P2
2023/02/13 00:00:30;;;;;;;36.35;19.08;;;;;;;-143.48;77.45;118439.88;5056352;28;20107;-40
2023/02/13 00:02:55;;;;;;;42.33;19.65;;;;;;;-143.48;77.51;118439.88;5056252;28;20071;-40
2023/02/13 00:05:21;;;;;;;36.05;19.60;;;;;;;-143.48;77.43;118439.88;5056181;28;20418;-40
2023/02/13 00:07:46;;;;;;;40.22;20.75;;;;;;;-143.48;77.58;118439.88;5056222;28;20056;-40
2023/02/13 00:10:11;;;;;;;39.17;19.05;;;;;;;-143.48;77.48;118439.88;5056239;28;20033;-41
2023/02/13 00:12:36;;;;;;;38.45;19.88;;;;;;;-143.48;76.99;118439.88;5056452;28;20108;-40
2023/02/13 00:15:03;;;;;;;37.00;19.10;;;;;;;-143.48;76.96;118439.88;5056027;28;20032;-41
2023/02/13 00:17:28;;;;;;;39.28;19.98;;;;;;;-143.48;77.06;118439.88;5056563;28;20399;-41
2023/02/13 00:19:54;;;;;;;39.45;19.70;;;;;;;-143.48;78.38;118439.88;5055826;28;20044;-40
2023/02/13 00:22:19;;;;;;;39.33;19.83;;;;;;;-143.48;77.22;118439.88;5055859;28;20029;-41
2023/02/13 00:24:45;;;;;;;39.55;20.00;;;;;;;-143.48;77.43;118439.88;5056113;28;20446;-40
2023/02/13 00:27:10;;;;;;;39.10;19.35;;;;;;;-143.48;77.51;118439.88;5056122;28;20044;-41
2023/02/13 00:29:35;;;;;;;38.22;19.95;;;;;;;-143.48;77.83;118439.88;5055757;28;20032;-40
2023/02/13 00:32:00;;;;;;;38.25;19.05;;;;;;;-143.48;77.21;118439.88;5056062;28;20108;-40
2023/02/13 00:34:27;;;;;;;40.58;20.10;;;;;;;-143.48;77.20;118439.88;5055692;28;20468;-40
2023/02/13 00:36:52;;;;;;;37.35;19.45;;;;;;;-143.48;77.17;118439.88;5055254;28;20054;-41
2023/02/13 00:39:17;;;;;;;40.67;18.88;;;;;;;-143.48;77.14;118439.88;5055111;28;20060;-41
2023/02/13 00:41:43;;;;;;;38.60;20.00;;;;;;;-143.48;77.77;118439.88;5056041;28;20074;-41
2023/02/13 00:44:09;;;;;;;35.47;19.58;;;;;;;-143.48;78.06;118439.88;5055492;28;20506;-41
2023/02/13 00:46:35;;;;;;;40.20;20.88;;;;;;;-143.48;78.48;118439.88;5055993;28;20032;-41
2023/02/13 00:49:00;;;;;;;38.75;19.75;;;;;;;-143.48;78.41;118439.88;5055254;28;20025;-40
2023/02/13 00:51:26;;;;;;;39.20;20.08;;;;;;;-143.48;78.01;118439.88;5055696;28;20017;-40
2023/02/13 00:53:51;;;;;;;39.63;20.17;;;;;;;-143.48;77.33;118439.88;5055383;28;20025;-41
2023/02/13 00:56:16;;;;;;;42.85;21.35;;;;;;;-143.48;77.70;118439.88;5055273;28;20521;-40
2023/02/13 00:58:41;;;;;;;40.65;20.27;;;;;;;-143.48;77.69;118439.88;5055491;28;20120;-42
2023/02/13 01:01:07;;;;;;;42.60;21.00;;;;;;;-143.48;77.83;118439.88;5053833;28;20061;-40
2023/02/13 01:03:32;;;;;;;35.45;20.10;;;;;;;-143.48;77.54;118439.88;5055050;28;20456;-40
2023/02/13 01:05:57;;;;;;;38.40;20.33;;;;;;;-143.48;77.78;118439.88;5055134;28;20508;-41
2023/02/13 01:08:23;;;;;;;40.85;20.60;;;;;;;-143.48;77.14;118439.88;5055078;28;20103;-40
2023/02/13 01:10:49;;;;;;;40.55;20.95;;;;;;;-143.48;78.16;118439.88;5055644;28;20064;-40
2023/02/13 01:13:17;;;;;;;40.40;21.45;;;;;;;-143.48;77.58;118439.88;5055534;28;20043;-40
2023/02/13 01:15:43;;;;;;;41.38;21.05;;;;;;;-143.48;77.42;118439.88;5055193;28;20103;-40
2023/02/13 01:18:12;;;;;;;38.35;19.70;;;;;;;-143.48;78.27;118439.88;5054689;28;20040;-40
2023/02/13 01:20:37;;;;;;;38.33;19.70;;;;;;;-143.48;77.46;118439.88;5054996;28;20072;-40
2023/02/13 01:23:03;;;;;;;41.13;21.15;;;;;;;-143.48;77.51;118439.88;5055770;28;20080;-40
2023/02/13 01:25:28;;;;;;;42.40;20.40;;;;;;;-143.48;77.33;118439.88;5054767;28;20038;-40
2023/02/13 01:27:54;;;;;;;39.97;19.92;;;;;;;-143.48;77.79;118439.88;5055249;28;20107;-41
2023/02/13 01:30:19;;;;;;;43.55;20.02;;;;;;;-143.48;77.80;118439.88;5054871;28;20052;-41
2023/02/13 01:32:46;;;;;;;38.13;19.67;;;;;;;-143.48;77.50;118439.88;5054757;28;20425;-40
2023/02/13 01:35:13;;;;;;;40.95;21.13;;;;;;;-143.48;77.69;118439.88;5054480;28;20028;-40
2023/02/13 01:37:39;;;;;;;41.65;19.98;;;;;;;-143.48;77.38;118439.88;5053287;28;20376;-40
2023/02/13 01:40:06;;;;;;;40.08;20.58;;;;;;;-143.48;76.90;118439.88;5054449;28;20078;-40
2023/02/13 01:42:34;;;;;;;38.97;20.27;;;;;;;-143.48;77.01;118439.88;5054552;28;20029;-41
2023/02/13 01:45:17;;;;;;;35.80;19.90;;;;;;;-143.48;77.41;118439.88;5054514;28;20029;-41
2023/02/13 01:47:49;;;;;;;37.38;19.13;;;;;;;-143.48;76.91;118439.88;5054632;28;20039;-41
2023/02/13 01:50:24;;;;;;;36.95;19.42;;;;;;;-143.48;77.84;118439.88;5054061;28;20033;-41
2023/02/13 01:53:31;;;;;;;38.53;19.55;;;;;;;-143.48;78.01;118439.88;5054478;28;20040;-41
2023/02/13 01:56:07;;;;;;;37.47;19.13;;;;;;;-143.48;78.21;118439.88;5043636;28;20043;-40
2023/02/13 01:58:36;;;;;;;39.78;18.83;;;;;;;-143.48;77.48;118439.88;5054109;28;20386;-40
2023/02/13 02:01:02;;;;;;;37.00;18.48;;;;;;;-143.48;77.39;118439.88;5053978;28;20028;-41
2023/02/13 02:03:42;;;;;;;38.88;19.52;;;;;;;-143.48;78.13;118439.88;5053956;28;20448;-40
2023/02/13 02:06:15;;;;;;;36.40;18.52;;;;;;;-143.48;78.06;118439.88;5053940;28;20029;-40
2023/02/13 02:08:41;;;;;;;38.58;18.65;;;;;;;-143.48;77.25;118439.88;5054494;28;20039;-41
2023/02/13 02:11:16;;;;;;;38.17;18.92;;;;;;;-143.48;77.28;118439.88;5054160;28;20447;-41
2023/02/13 02:13:43;;;;;;;37.42;19.52;;;;;;;-143.48;77.41;118439.88;5053889;28;20036;-41
2023/02/13 02:16:08;;;;;;;35.78;18.38;;;;;;;-143.48;77.43;118439.88;5054425;28;20064;-40
2023/02/13 02:18:33;;;;;;;36.78;18.17;;;;;;;-143.48;78.01;118439.88;5053600;28;20519;-40
2023/02/13 02:21:26;;;;;;;38.25;19.27;;;;;;;-143.48;78.33;118439.88;5053587;28;20029;-40
2023/02/13 02:24:23;;;;;;;37.72;17.60;;;;;;;-143.48;77.20;118439.88;5053668;28;20033;-40
2023/02/13 02:27:13;;;;;;;36.22;18.42;;;;;;;-143.48;77.92;118439.88;5053845;28;20102;-41
2023/02/13 02:29:56;;;;;;;38.92;18.85;;;;;;;-143.48;77.43;118439.88;5054163;28;20036;-41
2023/02/13 02:32:30;;;;;;;;;;;;;;;-143.48;77.45;118439.88;5054588;28;20025;-41
2023/02/13 02:35:22;;;;;;;37.53;17.98;;;;;;;-143.48;77.17;118439.88;5053438;28;19917;-40
2023/02/13 02:38:14;;;;;;;38.47;18.17;;;;;;;-143.48;77.80;118439.88;5053412;28;20020;-27
2023/02/13 02:41:01;;;;;;;33.33;17.58;;;;;;;-143.48;77.24;118439.88;5052244;28;20043;-28
2023/02/13 02:43:54;;;;;;;34.50;18.45;;;;;;;-143.48;76.94;118439.88;5053693;28;20046;-28
2023/02/13 02:50:10;;;;;;;37.83;18.25;;;;;;;-143.48;77.22;118439.88;5031585;28;20052;-27
2023/02/13 02:53:08;;;;;;;36.97;18.20;;;;;;;-143.48;77.90;118439.88;5031851;28;20100;-26
2023/02/13 02:55:49;;;;;;;37.38;18.80;;;;;;;-143.48;77.98;118439.88;5052586;28;20067;-26
2023/02/13 03:06:59;;;;;;;41.63;18.17;;;;;;;-143.48;77.59;118439.88;5057337;28;20154;-27
2023/02/13 03:15:03;;;;;;;36.10;18.02;;;;;;;-143.48;77.78;118439.88;5057999;28;20035;-27
2023/02/13 03:23:16;;;;;;;36.70;17.75;;;;;;;-143.48;78.05;118439.88;5057269;28;20036;-26
2023/02/13 03:26:14;;;;;;;36.08;17.88;;;;;;;-143.48;77.98;118439.88;5057223;28;20017;-26
2023/02/13 03:31:59;;;;;;;33.78;16.83;;;;;;;-143.48;77.82;118439.88;5057452;28;20059;-27
2023/02/13 03:37:53;;;;;;;39.20;17.70;;;;;;;-143.48;77.25;118439.88;5057110;28;20025;-27
2023/02/13 03:40:07;;;;;;;36.92;17.42;;;;;;;-143.48;77.27;118439.88;5057532;28;20046;-27
2023/02/13 03:42:47;;;;;;;34.75;16.77;;;;;;;-143.48;76.99;118439.88;5056572;28;20032;-28
2023/02/13 03:50:04;;;;;;;37.95;18.05;;;;;;;-143.48;78.18;118439.88;5056851;28;20055;-27
2023/02/13 03:50:58;;;;;;;35.80;17.20;;;;;;;-143.48;77.61;118439.88;5057073;28;20028;-27
2023/02/13 03:53:27;;;;;;;39.08;17.30;;;;;;;-143.48;77.48;118439.88;5056545;28;20074;-27
2023/02/13 04:01:32;;;;;;;34.63;17.08;;;;;;;-143.48;77.17;118439.88;5056296;28;20040;-27
2023/02/13 04:04:04;;;;;;;35.58;17.23;;;;;;;-143.48;77.89;118439.88;5055000;28;20056;-27
2023/02/13 04:06:35;;;;;;;34.83;16.85;;;;;;;-143.48;77.60;118439.88;5056152;28;20086;-27
2023/02/13 04:09:00;;;;;;;34.60;17.35;;;;;;;-143.48;77.84;118439.88;5056228;28;20485;-27
2023/02/13 04:11:42;;;;;;;34.15;17.00;;;;;;;-143.48;78.25;118439.88;5055219;28;20017;-27
2023/02/13 04:14:19;;;;;;;35.92;16.38;;;;;;;-143.48;77.78;118439.88;5055194;28;20082;-27
2023/02/13 04:16:51;;;;;;;36.42;17.48;;;;;;;-143.48;77.96;118439.88;5054726;28;20495;-27
2023/02/13 04:19:18;;;;;;;36.15;16.38;;;;;;;-143.48;78.56;118439.88;5055989;28;20049;-27
2023/02/13 04:21:43;;;;;;;33.70;16.27;;;;;;;-143.48;78.84;118439.88;5055847;28;20468;-27
2023/02/13 04:24:09;;;;;;;32.83;16.38;;;;;;;-143.48;78.38;118439.88;5056437;28;20021;-27
2023/02/13 04:26:40;;;;;;;33.90;16.48;;;;;;;-143.48;78.64;118439.88;5055838;28;20025;-27
2023/02/13 04:29:06;;;;;;;33.90;15.93;;;;;;;-143.48;78.40;118439.88;5055803;28;20025;-27
2023/02/13 04:31:31;;;;;;;34.15;16.63;;;;;;;-143.48;78.21;118439.88;5054407;28;20027;-27
2023/02/13 04:33:57;;;;;;;37.13;17.25;;;;;;;-143.48;78.40;118439.88;5056260;28;20032;-27
2023/02/13 04:36:22;;;;;;;32.47;17.00;;;;;;;-143.48;78.73;118439.88;5055743;28;20025;-27
2023/02/13 04:38:47;;;;;;;33.83;16.45;;;;;;;-143.48;78.25;118439.88;5055816;28;20071;-27
2023/02/13 04:41:13;;;;;;;36.60;16.83;;;;;;;-143.48;78.48;118439.88;5055529;28;20087;-27
2023/02/13 04:43:38;;;;;;;39.10;16.70;;;;;;;-143.48;78.38;118439.88;5055817;28;20472;-27
2023/02/13 04:46:04;;;;;;;34.13;15.90;;;;;;;-143.48;78.71;118439.88;5055529;28;20495;-27
2023/02/13 04:48:29;;;;;;;34.35;16.55;;;;;;;-143.48;79.20;118439.88;5055729;28;20059;-27
2023/02/13 04:50:55;;;;;;;36.92;17.92;;;;;;;-143.48;78.90;118439.88;5055900;28;20025;-27
2023/02/13 04:53:20;;;;;;;35.13;16.73;;;;;;;-143.48;78.96;118439.88;5055345;28;20028;-27
2023/02/13 04:55:47;;;;;;;39.83;16.50;;;;;;;-143.48;78.42;118439.88;5055306;28;20028;-26
2023/02/13 04:58:12;;;;;;;33.65;16.77;;;;;;;-143.48;79.37;118439.88;5055257;28;20056;-27
2023/02/13 05:00:38;;;;;;;36.83;16.42;;;;;;;-143.48;79.36;118439.88;5055494;28;20052;-27
2023/02/13 05:03:05;;;;;;;44.28;15.88;;;;;;;-143.48;78.94;118439.88;5055344;28;20052;-27
2023/02/13 05:05:30;;;;;;;32.92;16.40;;;;;;;-143.48;79.69;118439.88;5055088;28;20025;-27
2023/02/13 05:07:55;;;;;;;34.53;16.35;;;;;;;-143.48;79.92;118439.88;5055373;28;20031;-27
2023/02/13 05:10:21;;;;;;;36.10;17.10;;;;;;;-143.48;79.46;118439.88;5055345;28;20154;-28
2023/02/13 05:12:47;;;;;;;34.85;16.55;;;;;;;-143.48;79.63;118439.88;5054929;28;20079;-27
2023/02/13 05:15:12;;;;;;;32.97;16.33;;;;;;;-143.48;79.82;118439.88;5055003;28;20086;-27
2023/02/13 05:17:37;;;;;;;34.30;16.15;;;;;;;-143.48;80.21;118439.88;5055175;28;20029;-27
2023/02/13 05:20:03;;;;;;;33.72;16.02;;;;;;;-143.48;79.92;118439.88;5054773;28;20139;-27
2023/02/13 05:25:12;;;;;;;33.15;15.93;;;;;;;-143.48;79.56;118439.88;5054809;28;20040;-27
2023/02/13 05:27:37;;;;;;;35.42;16.60;;;;;;;-143.48;79.85;118439.88;5055081;28;20024;-27
2023/02/13 05:30:02;;;;;;;33.42;16.30;;;;;;;-143.48;80.62;118439.88;5054694;28;20048;-27
2023/02/13 05:32:28;;;;;;;34.35;15.93;;;;;;;-143.48;80.19;118439.88;5054665;28;20027;-27
2023/02/13 05:34:53;;;;;;;37.83;16.20;;;;;;;-143.48;80.67;118439.88;5054440;28;20074;-27
2023/02/13 05:37:18;;;;;;;35.53;16.33;;;;;;;-143.48;80.90;118439.88;5054592;28;20033;-27
2023/02/13 05:39:45;;;;;;;31.45;15.52;;;;;;;-143.48;80.43;118439.88;5054582;28;20117;-27
2023/02/13 05:42:10;;;;;;;35.95;16.25;;;;;;;-143.48;80.40;118439.88;5053105;28;20083;-27
2023/02/13 05:44:35;;;;;;;35.42;16.33;;;;;;;-143.48;81.43;118439.88;5054353;28;20383;-27
2023/02/13 05:47:01;;;;;;;36.17;17.63;;;;;;;-143.48;81.59;118439.88;5036856;28;20016;-27
2023/02/13 05:49:26;;;;;;;35.83;16.75;;;;;;;-143.48;80.59;118439.88;5054253;28;20033;-27
2023/02/13 05:51:52;;;;;;;35.33;16.65;;;;;;;-143.48;80.66;118439.88;5054820;28;20029;-27
2023/02/13 05:54:17;;;;;;;36.72;16.67;;;;;;;-143.48;80.92;118439.88;5054782;28;20029;-27
2023/02/13 05:56:43;;;;;;;32.75;16.02;;;;;;;-143.48;80.62;118439.88;5054401;28;20052;-27
2023/02/13 05:59:08;;;;;;;32.95;16.70;;;;;;;-143.48;80.79;118439.88;5052865;28;20029;-27
2023/02/13 06:01:34;;;;;;;33.35;15.43;;;;;;;-143.48;80.05;118439.88;5054296;28;20087;-27
2023/02/13 06:04:00;;;;;;;34.05;15.75;;;;;;;-143.48;80.24;118439.88;5053874;28;20102;-27
2023/02/13 06:06:25;;;;;;;38.22;16.65;;;;;;;-143.48;80.11;118439.88;5053932;28;20100;-27
2023/02/13 06:08:51;;;;;;;33.83;17.10;;;;;;;-143.48;79.75;118439.88;5054222;28;20056;-27
2023/02/13 06:11:16;;;;;;;31.15;15.43;;;;;;;-143.48;80.26;118439.88;5054184;28;20033;-28
2023/02/13 06:13:42;;;;;;;35.80;16.42;;;;;;;-143.48;80.17;118439.88;5053854;28;20033;-27
2023/02/13 06:16:08;;;;;;;33.10;15.85;;;;;;;-143.48;79.87;118439.88;5053818;28;20017;-27
2023/02/13 06:18:34;;;;;;;32.25;15.57;;;;;;;-143.48;80.14;118439.88;5053769;28;20077;-27
2023/02/13 06:20:59;;;;;;;34.97;16.02;;;;;;;-143.48;80.53;118439.88;5053633;28;20021;-27
2023/02/13 06:23:25;;;;;;;36.50;15.63;;;;;;;-143.48;80.30;118439.88;5052477;28;20021;-27
2023/02/13 06:25:50;;;;;;;36.95;16.45;;;;;;;-143.48;81.03;118439.88;5053999;28;20052;-27
2023/02/13 06:28:15;;;;;;;32.45;15.82;;;;;;;-143.48;81.50;118439.88;5053853;28;20100;-27
2023/02/13 06:30:41;;;;;;;35.08;15.93;;;;;;;-143.48;81.56;118439.88;5053564;28;20116;-27
2023/02/13 06:33:06;;;;;;;38.47;16.70;;;;;;;-143.48;81.32;118439.88;5053572;28;20032;-28
2023/02/13 06:35:31;;;;;;;36.50;16.80;;;;;;;-143.48;80.89;118439.88;5053045;28;20360;-27
2023/02/13 06:37:57;;;;;;;35.55;15.63;;;;;;;-143.48;80.43;118439.88;5053447;28;20046;-27
2023/02/13 06:40:22;;;;;;;33.50;16.42;;;;;;;-143.48;80.61;118439.88;5053331;28;20036;-27
2023/02/13 06:42:47;;;;;;;35.25;17.05;;;;;;;-143.48;80.91;118439.88;5053333;28;20017;-27
2023/02/13 06:45:13;;;;;;;37.95;16.00;;;;;;;-143.48;80.57;118439.88;5053643;28;20028;-27
2023/02/13 06:47:43;;;;;;;35.03;16.40;;;;;;;-143.48;80.17;118439.88;5053586;28;20025;-27
2023/02/13 06:50:10;;;;;;;36.40;17.15;;;;;;;-143.48;80.71;118439.88;5053487;28;20464;-27
2023/02/13 06:52:36;;;;;;;35.70;16.55;;;;;;;-143.48;80.89;118439.88;5053509;28;20013;-27
2023/02/13 06:55:02;;;;;;;37.33;16.17;;;;;;;-143.48;81.36;118439.88;5053535;28;20479;-27
2023/02/13 06:57:31;;;;;;;33.45;15.70;;;;;;;-143.48;81.18;118439.88;5053529;28;20021;-27
2023/02/13 06:59:57;;;;;;;37.03;16.40;;;;;;;-143.48;81.60;118439.88;5053097;28;20028;-27
2023/02/13 07:02:22;;;;;;;36.60;16.77;;;;;;;-143.48;81.39;118439.88;5053393;28;20029;-27
2023/02/13 07:04:48;;;;;;;35.10;15.75;;;;;;;-143.48;82.28;118439.88;5053329;28;20037;-27
2023/02/13 07:07:13;;;;;;;48.03;17.45;;;;;;;-143.48;82.22;118439.88;5053156;28;20021;-27
2023/02/13 07:09:39;;;;;;;34.75;16.55;;;;;;;-143.48;81.87;118439.88;5053445;28;20033;-27
2023/02/13 07:12:05;;;;;;;34.33;16.85;;;;;;;-143.48;82.85;118439.88;5053275;28;20017;-28
2023/02/13 07:14:31;;;;;;;37.05;16.60;;;;;;;-143.48;82.36;118439.88;5051669;28;20032;-27
2023/02/13 07:16:56;;;;;;;35.78;16.33;;;;;;;-143.48;82.24;118439.88;5053017;28;20108;-27
2023/02/13 07:19:22;;;;;;;34.15;16.23;;;;;;;-143.48;82.02;118439.88;5052899;28;20052;-27
2023/02/13 07:21:47;;;;;;;38.28;16.33;;;;;;;-143.48;82.46;118439.88;5053240;28;20025;-27
2023/02/13 07:24:12;;;;;;;36.67;16.88;;;;;;;-143.48;81.74;118439.88;5053100;28;20032;-27
2023/02/13 07:26:37;;;;;;;36.78;15.85;;;;;;;-143.48;82.17;118439.88;5053011;28;20029;-27
2023/02/13 07:29:04;;;;;;;35.67;16.13;;;;;;;-143.48;81.40;118439.88;5052902;28;20029;-27
2023/02/13 07:31:33;;;;;;;39.78;15.75;;;;;;;-143.48;81.84;118439.88;5053196;28;20392;-27
2023/02/13 07:33:59;;;;;;;35.38;16.15;;;;;;;-143.48;80.95;118439.88;5053126;28;20021;-27
2023/02/13 07:36:24;;;;;;;36.40;17.23;;;;;;;-143.48;82.23;118439.88;5052596;28;20387;-27
2023/02/13 07:38:50;;;;;;;32.33;15.80;;;;;;;-143.48;81.95;118439.88;5052845;28;20021;-27
2023/02/13 07:41:15;;;;;;;33.55;15.57;;;;;;;-143.48;81.60;118439.88;5053008;28;20032;-27
2023/02/13 07:43:40;;;;;;;36.90;16.73;;;;;;;-143.48;82.07;118439.88;5052899;28;20025;-27
2023/02/13 07:46:06;;;;;;;33.65;14.82;;;;;;;-143.48;81.94;118439.88;5052936;28;20043;-27
2023/02/13 07:48:31;;;;;;;33.50;16.17;;;;;;;-143.48;81.84;118439.88;5056360;28;20384;-27
2023/02/13 07:51:01;;;;;;;41.38;17.30;;;;;;;-143.48;81.60;118439.88;5056837;28;20078;-27
2023/02/13 07:53:27;;;;;;;38.47;15.90;;;;;;;-143.48;81.99;118439.88;5056397;28;20047;-27
2023/02/13 07:55:53;;;;;;;39.58;17.33;;;;;;;-143.48;81.71;118439.88;5056503;28;20029;-28
2023/02/13 07:58:18;;;;;;;38.45;16.73;;;;;;;-143.48;81.87;118439.88;5056477;28;20044;-27
2023/02/13 08:00:44;;;;;;;35.55;16.25;;;;;;;-143.48;81.55;118439.88;5056494;28;20110;-27
2023/02/13 08:03:09;;;;;;;40.47;17.38;;;;;;;-143.48;81.67;118439.88;5054820;28;20025;-28
2023/02/13 08:05:35;;;;;;;37.17;17.35;;;;;;;-143.48;81.18;118439.88;5055002;28;20170;-28
2023/02/13 08:08:01;;;;;;;37.40;16.52;;;;;;;-143.48;81.06;118439.88;5056361;28;20426;-28
2023/02/13 08:13:13;;;;;;;42.15;17.52;;;;;;;-143.48;80.82;118439.88;5056077;28;20391;-28
2023/02/13 08:15:38;;;;;;;37.95;17.33;;;;;;;-143.48;80.95;118439.88;5054999;28;20025;-27
2023/02/13 08:18:04;;;;;;;44.22;16.98;;;;;;;-143.48;80.67;118439.88;5054061;28;20029;-29
2023/02/13 08:20:29;;;;;;;38.90;16.98;;;;;;;-143.48;80.70;118439.88;5053912;28;20029;-27
2023/02/13 08:23:02;;;;;;;38.33;17.30;;;;;;;-143.48;80.94;118439.88;5053521;28;20430;-27
2023/02/13 08:25:27;;;;;;;34.45;16.38;;;;;;;-143.48;81.12;118439.88;5054395;28;20032;-28
2023/02/13 08:27:52;;;;;;;40.05;17.55;;;;;;;-143.48;81.52;118439.88;5054401;28;20052;-28
2023/02/13 08:30:18;;;;;;;35.33;17.02;;;;;;;-143.48;81.31;118439.88;5054131;28;20029;-28
2023/02/13 08:32:43;;;;;;;39.65;18.45;;;;;;;-143.48;81.16;118439.88;5053670;28;20021;-27
2023/02/13 08:35:08;;;;;;;37.95;17.10;;;;;;;-143.48;81.03;118439.88;5056296;28;20483;-28
2023/02/13 08:37:33;;;;;;;37.15;18.10;;;;;;;-143.48;80.95;118439.88;5055626;28;20483;-27
2023/02/13 08:39:59;;;;;;;40.92;17.70;;;;;;;-143.48;81.44;118439.88;5055848;28;20078;-28
2023/02/13 08:42:24;;;;;;;39.83;17.50;;;;;;;-143.48;80.87;118439.88;5055712;28;20104;-27
2023/02/13 08:44:50;;;;;;;36.88;17.45;;;;;;;-143.48;80.00;118439.88;5055563;28;20035;-27
2023/02/13 08:47:16;;;;;;;38.22;18.02;;;;;;;-143.48;80.00;118439.88;5054240;28;20029;-27
2023/02/13 08:49:42;;;;;;;37.72;18.23;;;;;;;-143.48;79.27;118439.88;5054805;28;20047;-28
2023/02/13 08:52:08;;;;;;;36.75;18.23;;;;;;;-143.48;79.18;118439.88;5054189;28;20029;-28
2023/02/13 08:54:35;;;;;;;38.95;18.60;;;;;;;-143.48;79.23;118439.88;5055703;28;20422;-28
2023/02/13 08:57:00;;;;;;;37.33;17.83;;;;;;;-143.48;79.10;118439.88;5055659;28;20059;-27
2023/02/13 08:59:26;;;;;;;36.20;17.92;;;;;;;-143.48;77.89;118439.88;5054851;28;20384;-28
2023/02/13 09:01:51;;;;;;;42.28;18.55;;;;;;;-143.48;78.98;118439.88;5055424;28;20025;-28
2023/02/13 09:04:19;;;;;;;35.33;17.55;;;;;;;-143.48;78.17;118439.88;5054912;28;20486;-30
2023/02/13 09:06:44;;;;;;;35.65;18.02;;;;;;;-143.48;77.80;118439.88;5055347;28;20029;-28
2023/02/13 09:09:10;;;;;;;37.28;18.27;;;;;;;-143.48;77.98;118439.88;5054431;28;20363;-28
2023/02/13 09:11:35;;;;;;;34.72;18.10;;;;;;;-143.48;77.66;118439.88;5054892;28;20028;-27
2023/02/13 09:14:01;;;;;;;38.63;18.40;;;;;;;-143.48;76.87;118439.88;5053770;28;20043;-28
2023/02/13 09:16:26;;;;;;;36.08;18.17;;;;;;;-143.48;78.55;118439.88;5054581;28;20021;-27
2023/02/13 09:18:51;;;;;;;40.65;18.30;;;;;;;-143.48;78.58;118439.88;5055106;28;20052;-27
2023/02/13 09:21:19;;;;;;;39.25;18.83;;;;;;;-143.48;78.33;118439.88;5053558;28;20032;-27
2023/02/13 09:23:44;;;;;;;37.20;17.92;;;;;;;-143.48;77.91;118439.88;5055095;28;20025;-27
2023/02/13 09:26:13;;;;;;;37.58;18.48;;;;;;;-143.48;77.91;118439.88;5055272;28;20432;-27
2023/02/13 09:28:39;;;;;;;40.78;17.67;;;;;;;-143.48;76.93;118439.88;5054648;28;20033;-27
2023/02/13 09:31:08;;;;;;;35.05;17.63;;;;;;;-143.48;76.64;118439.88;5054614;28;20028;-28
2023/02/13 09:33:34;;;;;;;37.33;17.70;;;;;;;-143.48;77.89;118439.88;5036808;28;20029;-28
2023/02/13 09:36:05;;;;;;;36.55;18.80;;;;;;;-143.48;77.67;118439.88;5053296;28;20476;-29
2023/02/13 09:38:31;;;;;;;31.02;16.88;;;;;;;-143.48;76.46;118439.88;5036723;28;20455;-28
2023/02/13 09:41:02;;;;;;;33.30;17.20;;;;;;;-143.48;76.08;118439.88;5053240;28;20045;-28
2023/02/13 09:43:29;;;;;;;31.92;16.60;;;;;;;-143.48;74.92;118439.88;5055119;28;20063;-29
2023/02/13 09:46:03;;;;;;;34.20;16.48;;;;;;;-143.48;74.70;118439.88;5053772;28;20052;-28
2023/02/13 09:48:33;;;;;;;29.08;15.88;;;;;;;-143.48;70.50;118439.88;5053962;28;20395;-28
2023/02/13 09:50:59;;;;;;;30.17;16.88;;;;;;;-143.48;71.02;118439.88;5052863;28;20024;-27
2023/02/13 09:53:27;;;;;;;31.52;16.95;;;;;;;-143.48;72.71;118439.88;5054395;28;20021;-27
2023/02/13 09:56:14;;;;;;;33.05;17.67;;;;;;;-143.48;68.95;118439.88;5054380;28;20035;-28
2023/02/13 09:58:52;;;;;;;31.50;17.23;;;;;;;-143.48;68.38;118439.88;5053891;28;20056;-27
2023/02/13 10:01:45;;;;;;;29.88;17.48;;;;;;;-143.48;57.83;118439.88;5054228;28;20025;-27
2023/02/13 10:04:23;;;;;;;30.08;17.08;;;;;;;-143.48;55.79;118439.88;5053943;28;20070;-28
2023/02/13 10:07:03;;;;;;;28.73;16.98;;;;;;;-143.48;62.66;118439.88;5054468;28;20025;-28
2023/02/13 10:09:43;;;;;;;27.75;17.50;;;;;;;-143.48;56.39;118439.88;5054267;28;20107;-28
2023/02/13 10:12:23;;;;;;;27.70;16.67;;;;;;;-143.48;60.32;118439.88;5054325;28;20021;-28
2023/02/13 10:15:12;;;;;;;27.30;17.42;;;;;;;-143.48;53.97;118439.88;5054048;28;20459;-28
2023/02/13 10:17:41;;;;;;;25.33;17.38;;;;;;;-143.48;51.17;118439.88;5049818;28;20531;-28
2023/02/13 10:20:27;;;;;;;27.13;18.05;;;;;;;-143.48;57.80;118439.88;5053258;28;20131;-28
2023/02/13 10:23:20;;;;;;;24.10;17.15;;;;;;;-143.48;53.56;118439.88;5053822;28;20040;-28
2023/02/13 10:25:52;;;;;;;;;;;;;;;-143.48;54.30;118439.88;5053180;28;20029;-28
2023/02/13 10:28:29;;;;;;;25.70;17.55;;;;;;;-143.48;56.94;118439.88;5053598;28;19995;-28
2023/02/13 10:31:00;;;;;;;25.70;17.88;;;;;;;-143.48;59.28;118439.88;5053449;28;20025;-28
2023/02/13 10:33:32;;;;;;;27.70;17.80;;;;;;;-143.48;53.01;118439.88;5053569;28;20071;-28
2023/02/13 10:36:00;;;;;;;23.88;17.00;;;;;;;-143.48;48.71;118439.88;5054025;28;20024;-28
2023/02/13 10:38:29;;;;;;;24.02;16.85;;;;;;;-143.48;47.58;118439.88;5053694;28;20032;-29
2023/02/13 10:41:04;;;;;;;23.23;16.33;;;;;;;-143.48;45.02;118439.88;5053432;28;20500;-32
2023/02/13 10:43:39;;;;;;;22.85;16.52;;;;;;;-143.48;43.23;118439.88;5053620;28;20017;-28
2023/02/13 10:46:49;;;;;;;21.17;15.48;;;;;;;-143.48;43.44;118439.88;5053552;28;20109;-28
2023/02/13 10:49:40;;;;;;;21.88;15.82;;;;;;;-143.48;43.46;118439.88;5044921;28;20484;-28
2023/02/13 10:52:26;;;;;;;20.63;15.32;;;;;;;-143.48;43.05;118439.88;5050724;28;20036;-28
2023/02/13 10:55:21;;;;;;;19.67;15.48;;;;;;;-143.48;40.98;118439.88;5053548;28;20367;-28
2023/02/13 10:58:06;;;;;;;19.33;15.15;;;;;;;-143.48;40.34;118439.88;5053689;28;20052;-28
2023/02/13 11:00:34;;;;;;;21.05;15.38;;;;;;;-143.48;40.93;118439.88;5053489;28;20111;-28
2023/02/13 11:03:00;;;;;;;21.42;15.48;;;;;;;-143.48;40.29;118439.88;5053118;28;20064;-30
2023/02/13 11:05:46;;;;;;;19.33;14.43;;;;;;;-143.48;40.64;118439.88;5053363;28;20420;-28
2023/02/13 11:08:20;;;;;;;22.40;15.57;;;;;;;-143.48;41.06;118439.88;5052749;28;20120;-28
2023/02/13 11:10:46;;;;;;;21.10;15.00;;;;;;;-143.48;40.27;118439.88;5053923;28;20036;-28
2023/02/13 11:13:21;;;;;;;21.83;15.88;;;;;;;-143.48;40.89;118439.88;5053524;28;20066;-28
2023/02/13 11:16:06;;;;;;;20.88;14.70;;;;;;;-143.48;39.38;118439.88;5053129;28;20025;-28
2023/02/13 11:18:36;;;;;;;21.52;15.30;;;;;;;-143.48;38.63;118439.88;5051612;28;20076;-28
2023/02/13 11:21:21;;;;;;;23.48;14.80;;;;;;;-143.48;38.33;118439.88;5053073;28;20495;-28
2023/02/13 11:23:51;;;;;;;24.77;15.75;;;;;;;-143.48;41.42;118439.88;5057246;28;20040;-28
2023/02/13 11:26:32;;;;;;;21.70;14.68;;;;;;;-143.48;41.17;118439.88;5055797;28;20403;-28
2023/02/13 11:29:15;;;;;;;20.45;13.57;;;;;;;-143.48;42.79;118439.88;5057173;28;20115;-28
2023/02/13 11:31:41;;;;;;;21.13;14.07;;;;;;;-143.48;47.94;118439.88;5057476;28;20056;-28
2023/02/13 11:34:28;;;;;;;24.20;14.18;;;;;;;-143.48;43.26;118439.88;5055713;28;20098;-28
2023/02/13 11:37:13;;;;;;;20.02;13.60;;;;;;;-143.48;43.49;118439.88;5055522;28;20021;-28
2023/02/13 11:39:40;;;;;;;21.23;13.95;;;;;;;-143.48;44.88;118439.88;5055466;28;20028;-28
2023/02/13 11:42:16;;;;;;;20.95;13.60;;;;;;;-143.48;50.23;118439.88;5056944;28;20017;-28
2023/02/13 11:44:47;;;;;;;21.90;13.55;;;;;;;-143.48;51.34;118439.88;5054080;28;20024;-28
2023/02/13 11:47:14;;;;;;;25.58;15.18;;;;;;;-143.48;48.48;118439.88;5054679;28;20024;-28
2023/02/13 11:49:45;;;;;;;22.35;14.00;;;;;;;-143.48;40.34;118439.88;5055124;28;20055;-28